createdAt,value
2022-11-05T00:01:40.047Z,100062.19
2022-11-05T00:07:00.917Z,100057.47
2022-11-05T00:12:25.226Z,100077.78
2022-11-05T00:17:27.852Z,100090.31
2022-11-05T00:22:48.034Z,100091.16
2022-11-05T00:27:54.188Z,100086.00
2022-11-05T00:33:02.034Z,100070.13
2022-11-05T00:38:04.721Z,100089.09
2022-11-05T00:43:26.513Z,100094.94
2022-11-05T00:48:58.136Z,100113.84
2022-11-05T00:54:00.872Z,100113.38
2022-11-05T00:59:05.229Z,100108.16
2022-11-05T01:04:07.913Z,100125.16
2022-11-05T01:09:10.591Z,100136.44
2022-11-05T01:14:17.069Z,100122.72
2022-11-05T01:19:19.796Z,100145.50
2022-11-05T01:24:22.614Z,100129.44
2022-11-05T01:29:26.662Z,100139.63
2022-11-05T01:34:29.498Z,100143.81
2022-11-05T01:39:32.188Z,100151.66
2022-11-05T01:44:55.211Z,100161.78
2022-11-05T01:50:01.287Z,100140.28
2022-11-05T01:55:06.707Z,100157.59
2022-11-05T02:00:12.416Z,100156.41
2022-11-05T02:05:16.658Z,100159.47
2022-11-05T02:10:20.015Z,100173.66
2022-11-05T02:15:31.375Z,100170.91
2022-11-05T02:20:40.739Z,100176.41
2022-11-05T02:26:11.880Z,100176.31
2022-11-05T02:31:27.692Z,100200.19
2022-11-05T02:36:40.027Z,100196.28
2022-11-05T02:41:50.281Z,100189.09
2022-11-05T02:46:59.527Z,100198.88
2022-11-05T02:52:06.169Z,100187.16
2022-11-05T02:57:08.877Z,100205.88
2022-11-05T03:02:13.203Z,100198.72
2022-11-05T03:07:36.426Z,100196.56
2022-11-05T03:12:46.078Z,100219.00
2022-11-05T03:18:02.092Z,100215.16
2022-11-05T03:23:12.131Z,100235.50
2022-11-05T03:28:16.101Z,100236.16
2022-11-05T03:33:23.270Z,100240.13
2022-11-05T03:38:33.966Z,100251.34
2022-11-05T03:43:41.713Z,100253.50
2022-11-05T03:48:50.059Z,100243.25
2022-11-05T03:53:58.706Z,100248.97
2022-11-05T03:59:03.181Z,100258.19
2022-11-05T04:04:07.556Z,100282.13
2022-11-05T04:09:28.815Z,100284.13
2022-11-05T04:14:32.122Z,100291.66
2022-11-05T04:19:54.264Z,100294.63
2022-11-05T04:24:56.988Z,100275.34
2022-11-05T04:30:17.001Z,100285.94
2022-11-05T04:35:21.006Z,100305.78
2022-11-05T04:40:24.229Z,100299.19
2022-11-05T04:45:29.122Z,100298.72
2022-11-05T04:50:34.253Z,100292.69
2022-11-05T04:55:36.978Z,100306.31
2022-11-05T05:00:39.698Z,100299.78
2022-11-05T05:05:43.939Z,100304.69
2022-11-05T05:10:46.617Z,100336.25
2022-11-05T05:15:49.254Z,100342.22
2022-11-05T05:21:10.976Z,100335.72
2022-11-05T05:26:13.874Z,100336.28
2022-11-05T05:31:16.512Z,100331.91
2022-11-05T05:36:20.670Z,100334.09
2022-11-05T05:41:23.392Z,100358.03
2022-11-05T05:46:26.206Z,100365.94
2022-11-05T05:51:31.338Z,100369.44
2022-11-05T05:56:34.038Z,100369.41
2022-11-05T06:01:37.091Z,100364.00
2022-11-05T06:06:41.245Z,100374.72
2022-11-05T06:11:43.976Z,100390.34
2022-11-05T06:16:46.901Z,100382.38
2022-11-05T06:21:51.275Z,100398.50
2022-11-05T06:26:54.107Z,100398.63
2022-11-05T06:31:56.800Z,100424.88
2022-11-05T06:37:00.836Z,100430.16
2022-11-05T06:42:17.769Z,100440.28
2022-11-05T06:47:21.508Z,100444.59
2022-11-05T06:52:27.139Z,100468.91
2022-11-05T06:57:29.992Z,100479.28
2022-11-05T07:02:40.227Z,100490.44
2022-11-05T07:07:48.792Z,100491.34
2022-11-05T07:13:02.510Z,100484.28
2022-11-05T07:18:09.389Z,100501.59
2022-11-05T07:23:15.720Z,100504.84
2022-11-05T07:28:18.528Z,100502.22
2022-11-05T07:33:21.194Z,100512.84
2022-11-05T07:38:25.395Z,100517.81
2022-11-05T07:43:28.305Z,100528.22
2022-11-05T07:48:31.360Z,100533.13
2022-11-05T07:53:42.509Z,100525.47
2022-11-05T07:58:47.884Z,100540.91
2022-11-05T08:03:52.096Z,100518.09
2022-11-05T08:08:57.694Z,100536.63
2022-11-05T08:14:00.516Z,100538.81
2022-11-05T08:19:07.048Z,100545.31
2022-11-05T08:24:11.606Z,100543.41
2022-11-05T08:29:14.127Z,100564.34
2022-11-05T08:34:16.851Z,100568.16
2022-11-05T08:39:20.852Z,100561.41
2022-11-05T08:44:23.479Z,100583.22
2022-11-05T08:49:26.193Z,100591.16
2022-11-05T08:54:30.169Z,100601.56
2022-11-05T08:59:32.780Z,100596.06
2022-11-05T09:04:35.386Z,100590.31
2022-11-05T09:09:39.410Z,100613.81
2022-11-05T09:14:58.477Z,100615.72
2022-11-05T09:20:17.393Z,100604.25
2022-11-05T09:31:23.607Z,100621.16
2022-11-05T09:36:32.792Z,100623.47
2022-11-05T09:41:40.638Z,100637.13
2022-11-05T09:46:46.908Z,100627.00
2022-11-05T09:51:50.684Z,100615.41
2022-11-05T09:56:56.628Z,100637.66
2022-11-05T10:02:13.510Z,100647.41
2022-11-05T10:07:36.577Z,100629.97
2022-11-05T10:12:49.137Z,100644.28
2022-11-05T10:18:03.670Z,100629.75
2022-11-05T10:23:16.955Z,100643.75
2022-11-05T10:28:31.240Z,100651.09
2022-11-05T10:33:37.199Z,100655.75
2022-11-05T10:38:43.818Z,100645.31
2022-11-05T10:43:50.848Z,100663.63
2022-11-05T10:49:05.221Z,100659.19
2022-11-05T10:54:17.335Z,100660.69
2022-11-05T10:59:24.436Z,100639.56
2022-11-05T11:04:33.611Z,100644.28
2022-11-05T11:09:40.542Z,100640.78
2022-11-05T11:15:11.722Z,100657.22
2022-11-05T11:20:29.360Z,100648.84
2022-11-05T11:25:39.235Z,100645.78
2022-11-05T11:30:49.724Z,100664.09
2022-11-05T11:35:52.723Z,100680.69
2022-11-05T11:41:02.834Z,100675.94
2022-11-05T11:46:16.131Z,100678.16
2022-11-05T11:51:30.779Z,100665.91
2022-11-05T11:56:45.225Z,100643.09
2022-11-05T12:02:11.060Z,100653.03
2022-11-05T12:07:24.817Z,100650.88
2022-11-05T12:12:39.365Z,100652.56
2022-11-05T12:17:58.412Z,100659.34
2022-11-05T12:23:17.964Z,100656.56
2022-11-05T12:29:04.844Z,100640.19
2022-11-05T12:34:24.399Z,100638.78
2022-11-05T12:39:44.948Z,100650.84
2022-11-05T12:44:56.822Z,100640.66
2022-11-05T12:50:22.723Z,100642.09
2022-11-05T12:55:30.986Z,100653.44
2022-11-05T13:00:54.388Z,100647.16
2022-11-05T13:06:06.343Z,100663.81
2022-11-05T13:11:21.301Z,100650.75
2022-11-05T13:16:38.832Z,100630.72
2022-11-05T13:21:53.775Z,100645.56
2022-11-05T13:27:02.445Z,100650.88
2022-11-05T13:32:27.061Z,100642.53
2022-11-05T13:37:52.179Z,100652.16
2022-11-05T13:43:11.053Z,100656.19
2022-11-05T13:48:46.349Z,100665.69
2022-11-05T13:54:20.646Z,100658.53
2022-11-05T13:59:42.244Z,100673.13
2022-11-05T14:05:00.935Z,100673.94
2022-11-05T14:10:15.917Z,100664.88
2022-11-05T14:15:28.256Z,100679.63
2022-11-05T14:21:08.218Z,100663.34
2022-11-05T14:26:20.515Z,100655.56
2022-11-05T14:32:07.658Z,100652.84
2022-11-05T14:37:15.578Z,100668.66
2022-11-05T14:42:23.220Z,100662.84
2022-11-05T14:47:30.679Z,100672.47
2022-11-05T14:52:34.043Z,100666.06
2022-11-05T14:58:21.725Z,100674.88
2022-11-05T15:04:04.593Z,100703.13
2022-11-05T15:09:35.066Z,100681.38
2022-11-05T15:14:58.735Z,100680.63
2022-11-05T15:20:11.921Z,100708.41
2022-11-05T15:25:22.159Z,100704.41
2022-11-05T15:30:25.888Z,100713.06
2022-11-05T15:35:33.965Z,100693.47
2022-11-05T15:40:36.867Z,100717.19
2022-11-05T15:46:04.635Z,100722.88
2022-11-05T15:51:10.765Z,100729.44
2022-11-05T15:56:20.258Z,100728.41
2022-11-05T16:01:27.989Z,100729.75
2022-11-05T16:06:39.717Z,100723.91
2022-11-05T16:11:42.649Z,100721.91
2022-11-05T16:16:46.573Z,100746.09
2022-11-05T16:21:55.928Z,100725.63
2022-11-05T16:27:02.624Z,100740.06
2022-11-05T16:32:14.976Z,100742.94
2022-11-05T16:37:25.209Z,100734.34
2022-11-05T16:42:40.241Z,100736.78
2022-11-05T16:47:44.289Z,100748.56
2022-11-05T16:52:59.873Z,100777.00
2022-11-05T16:58:03.282Z,100759.69
2022-11-05T17:03:12.954Z,100777.16
2022-11-05T17:08:17.148Z,100773.97
2022-11-05T17:13:21.389Z,100773.50
2022-11-05T17:18:24.597Z,100790.16
2022-11-05T17:23:30.467Z,100777.06
2022-11-05T17:28:33.563Z,100780.91
2022-11-05T17:33:36.484Z,100808.84
2022-11-05T17:38:40.966Z,100788.03
2022-11-05T17:43:44.038Z,100789.22
2022-11-05T17:48:47.110Z,100801.66
2022-11-05T17:53:51.217Z,100802.16
2022-11-05T17:58:55.622Z,100813.81
2022-11-05T18:04:01.252Z,100814.75
2022-11-05T18:09:09.630Z,100799.06
2022-11-05T18:14:13.178Z,100822.38
2022-11-05T18:19:16.284Z,100820.47
2022-11-05T18:24:20.485Z,100826.75
2022-11-05T18:29:23.190Z,100825.22
2022-11-05T18:34:25.832Z,100829.38
2022-11-05T18:39:30.096Z,100829.47
2022-11-05T18:44:38.765Z,100821.78
2022-11-05T18:49:42.248Z,100832.19
2022-11-05T18:54:46.347Z,100800.09
2022-11-05T18:59:49.134Z,100810.38
2022-11-05T19:05:21.984Z,100824.38
2022-11-05T19:10:16.174Z,100827.19
2022-11-05T19:15:19.031Z,100828.84
2022-11-05T19:20:21.666Z,100812.75
2022-11-05T19:25:25.751Z,100819.91
2022-11-05T19:30:28.450Z,100835.66
2022-11-05T19:35:31.080Z,100842.13
2022-11-05T19:40:37.627Z,100834.84
2022-11-05T19:45:45.456Z,100824.38
2022-11-05T19:50:48.357Z,100832.03
2022-11-05T19:55:52.418Z,100842.13
2022-11-05T20:00:56.683Z,100831.03
2022-11-05T20:06:03.538Z,100847.69
2022-11-05T20:11:08.109Z,100858.44
2022-11-05T20:16:19.729Z,100855.81
2022-11-05T20:21:22.544Z,100849.81
2022-11-05T20:26:26.973Z,100843.63
2022-11-05T20:31:30.225Z,100867.41
2022-11-05T20:36:32.857Z,100873.00
2022-11-05T20:41:36.960Z,100848.63
2022-11-05T20:46:39.815Z,100858.22
2022-11-05T20:51:42.629Z,100847.06
2022-11-05T20:56:46.694Z,100865.66
2022-11-05T21:01:51.052Z,100869.44
2022-11-05T21:06:53.929Z,100856.44
2022-11-05T21:12:13.352Z,100870.28
2022-11-05T21:17:15.985Z,100885.91
2022-11-05T21:22:18.965Z,100875.75
2022-11-05T21:27:22.996Z,100869.16
2022-11-05T21:32:25.629Z,100879.72
2022-11-05T21:37:28.637Z,100870.66
2022-11-05T21:42:32.617Z,100884.19
2022-11-05T21:47:35.683Z,100878.56
2022-11-05T21:52:55.610Z,100859.81
2022-11-05T21:58:21.228Z,100880.22
2022-11-05T22:03:24.045Z,100865.53
2022-11-05T22:08:27.238Z,100867.56
2022-11-05T22:13:31.239Z,100864.34
2022-11-05T22:18:33.918Z,100857.63
2022-11-05T22:23:36.493Z,100856.63
2022-11-05T22:28:40.522Z,100859.78
2022-11-05T22:33:43.296Z,100833.31
2022-11-05T22:38:46.075Z,100860.38
2022-11-05T22:43:50.303Z,100843.06
2022-11-05T22:48:53.930Z,100855.03
2022-11-05T22:53:56.720Z,100858.69
2022-11-05T22:59:00.875Z,100847.66
2022-11-05T23:04:03.486Z,100838.38
2022-11-05T23:09:26.322Z,100828.72
2022-11-05T23:14:30.479Z,100863.97
2022-11-05T23:19:47.003Z,100862.34
2022-11-05T23:24:49.651Z,100855.81
2022-11-05T23:29:53.773Z,100823.91
2022-11-05T23:34:57.849Z,100838.97
2022-11-05T23:40:00.685Z,100851.25
2022-11-05T23:45:22.833Z,100838.88
2022-11-05T23:50:26.012Z,100843.03
2022-11-05T23:55:28.675Z,100857.13
